Plymouth Light

42° 00' 12"N, 70° 36' 04"W, Elevation 54 ft.
Eastern Time

Hourly observations for the last 72 hours

Date Time Temperature (F) Humi-
dity

(%)
Wind
(mph)
Pressure Rain (in) Sun
(W/m2)
ET
(in)
Air Dew 6 Hour 1 Hr 3 Hr 6 Hr Day
Alt
(in)
Sea
Level

(mb)
Max Min
22 21:00 33.9 31.8 92 ENE 0 G 2 30.63 1037.3 0.00 0 0.018
22 20:00 33.5 31.7 93 ESE 0 G 1 30.61 1036.7 0.00 0 0.018
22 19:00 32.9 31.4 38.3 32.5 94 ENE 0 G 2 30.63 1037.4 0.00 0 0.018
22 18:00 33.0 31.2 93 NE 1 G 3 30.65 1037.9 0.00 0 0.018
22 17:00 33.0 30.1 89 NNE 1 G 9 30.62 1037.0 0.00 5 0.018
22 16:00 36.6 29.4 75 NE 1 G 5 30.59 1036.1 0.00 18 0.017
22 15:00 37.3 28.4 70 N 2 G 4 30.55 1034.7 0.00 30 0.016
22 14:00 37.6 29.4 72 N 1 G 4 30.55 1034.6 0.00 93 0.015
22 13:00 38.3 31.1 40.3 38.3 75 N 1 G 5 30.58 1035.5 0.00 91 0.013
22 12:00 39.3 33.0 78 NE 2 G 5 30.60 1036.4 0.00 142 0.010
22 11:00 39.7 34.7 82 NNE 1 G 3 30.62 1037.0 0.00 88 0.008
22 10:00 40.2 33.9 78 NE 1 G 4 30.60 1036.4 0.00 202 0.006
22 09:00 39.9 33.6 78 NE 1 G 4 30.60 1036.2 0.00 84 0.004
22 08:00 40.0 33.1 76 NE 2 G 5 30.59 1035.9 0.00 54 0.003
22 07:00 40.1 35.7 50.6 40.1 84 NE 1 G 3 30.58 1035.5 0.00 11 0.003
22 06:00 40.8 35.7 82 NE 1 G 4 30.55 1034.4 0.00 0 0.003
22 05:00 40.6 36.4 85 NNE 2 G 5 30.51 1033.3 0.00 0 0.003
22 04:00 42.1 35.7 78 NNE 2 G 5 30.48 1032.1 0.00 0 0.003
22 03:00 43.6 35.2 72 N 3 G 8 30.45 1031.2 0.00 0 0.002
22 02:00 49.3 26.6 41 N 3 G 12 30.41 1029.8 0.00 0 0.000
22 01:00 49.2 35.5 54.5 45.5 59 N 4 G 15 30.39 1029.3 0.00 0 0.000
22 00:00 45.5 42.4 89 N 1 G 9 30.35 1027.8 0.00 0 0.058
21 23:00 47.0 44.8 92 N 0 G 2 30.33 1027.0 0.00 0 0.058
21 22:00 54.1 53.3 97 Calm 30.27 1025.1 0.00 0 0.058
21 21:00 51.6 51.1 98 W 0 G 4 30.24 1024.0 0.00 0 0.058
21 20:00 49.8 49.3 98 WSW 0 G 2 30.20 1022.9 0.00 0 0.058
21 19:00 47.9 47.4 55.8 46.3 98 WSW 0 G 2 30.17 1021.5 0.00 0 0.058
21 18:00 46.5 45.7 97 SW 4 G 12 30.13 1020.3 0.00 0 0.058
21 17:00 47.0 45.9 96 SW 4 G 12 30.12 1019.9 0.00 19 0.057
21 16:00 47.5 46.1 95 SW 6 G 16 30.10 1019.5 0.00 174 0.052
21 15:00 48.7 46.8 93 SW 4 G 10 30.12 1019.9 0.00 369 0.046
21 14:00 51.2 49.0 92 WSW 5 G 12 30.12 1019.9 0.00 478 0.036
21 13:00 55.8 52.9 57.4 53.2 90 SW 2 G 6 30.13 1020.4 0.00 584 0.026
21 12:00 55.8 54.4 95 WSW 4 G 12 30.16 1021.5 0.00 392 0.020
21 11:00 55.8 54.1 94 WSW 3 G 10 30.18 1022.2 0.00 185 0.012
21 10:00 55.4 53.7 94 SW 2 G 4 30.20 1022.6 0.00 529 0.005
21 09:00 55.0 53.6 95 WSW 3 G 12 30.20 1022.8 0.00 169 0.002
21 08:00 55.0 54.2 97 WSW 5 G 11 30.20 1022.7 0.00 91 0.000
21 07:00 53.6 53.0 54.1 46.8 98 WSW 2 G 10 30.19 1022.6 0.00 28 0.000
21 06:00 49.5 49.0 98 WSW 0 G 3 30.20 1022.8 0.00 0 0.000
21 05:00 52.3 51.8 98 N 3 G 6 30.21 1023.2 0.00 0 0.000
21 04:00 53.5 52.9 98 WSW 1 G 6 30.23 1023.6 0.00 0 0.000
21 03:00 49.4 48.6 97 SW 0 G 4 30.23 1023.8 0.00 0 0.000
21 02:00 49.7 48.9 97 WSW 2 G 3 30.24 1024.1 0.00 0 0.000
21 01:00 48.4 47.6 49.0 45.0 97 WSW 2 G 4 30.25 1024.5 0.00 0 0.000
21 00:00 48.5 47.4 96 WSW 0 G 4 30.26 1024.7 0.01 0 0.064
20 23:00 47.0 46.2 97 WSW 0 G 4 30.24 1024.2 0.01 0 0.064
20 22:00 45.6 44.5 96 WSW 1 G 4 30.25 1024.5 0.01 0 0.064
20 21:00 46.7 45.9 97 WSW 1 G 3 30.25 1024.4 0.01 0 0.064
20 20:00 45.2 44.1 96 SW 2 G 4 30.23 1023.7 0.01 0 0.064
20 19:00 47.7 46.3 59.6 46.0 95 WSW 1 G 3 30.24 1024.0 0.01 0 0.064
20 18:00 47.4 46.3 96 WSW 2 G 4 30.21 1023.1 0.01 0 0.064
20 17:00 48.1 45.9 92 SW 5 G 10 30.20 1022.6 0.01 19 0.062
20 16:00 52.6 47.9 84 SW 3 G 5 30.18 1022.2 0.01 160 0.057
20 15:00 57.4 50.9 79 SW 0 G 7 30.18 1022.0 0.01 338 0.049
20 14:00 57.2 51.4 81 WSW 0 G 2 30.18 1022.1 0.01 499 0.039
20 13:00 55.4 50.3 56.0 48.7 83 WSW 1 G 4 30.19 1022.4 0.01 573 0.028
20 12:00 52.8 50.2 91 WSW 2 G 6 30.19 1022.5 0.01 596 0.018
20 11:00 51.4 49.4 93 WSW 5 G 9 30.21 1023.1 0.01 471 0.011
20 10:00 51.9 49.9 93 WSW 3 G 9 30.22 1023.3 0.01 308 0.005
20 09:00 51.4 50.0 95 WSW 2 G 6 30.22 1023.5 0.01 304 0.001
20 08:00 49.2 48.1 96 N 1 G 4 30.23 1023.6 0.01 86 0.000
20 07:00 48.8 48.0 51.1 48.5 97 N 2 G 6 30.22 1023.4 0.01 0.01 12 0.000
20 06:00 48.8 48.0 97 N 0 G 3 30.20 1022.9 0.01 0 0.000
20 05:00 48.8 48.0 97 N 0 G 3 30.21 1023.1 0.01 0 0.000
20 04:00 49.7 48.9 97 N 1 G 4 30.21 1023.0 0.01 0.01 0 0.000
20 03:00 50.9 50.1 97 N 4 G 15 30.21 1023.2 0.01 0.01 0 0.000
20 02:00 50.2 49.1 96 N 2 G 5 30.22 1023.3 0.00 0 0.000
20 01:00 49.7 48.3 49.9 44.3 95 N 2 G 6 30.25 1024.5 0.01 0.02 0.00 0 0.000
20 00:00 48.1 47.0 96 N 1 G 4 30.26 1024.8 0.03 0 0.063
19 23:00 47.5 45.9 94 N 1 G 4 30.28 1025.6 0.01 0.03 0 0.063
19 22:00 47.7 45.8 93 N 2 G 4 30.30 1026.1 0.01 0.02 0 0.063

Data generated by WxSolution Version 1.8.8.8, Build 2016.04.03.